sensor_id;sensor_type;location;lat;lon;timestamp;pressure;altitude;pressure_sealevel;temperature;humidity
46223;BME280;31943;51.410;7.564;2022-12-29T00:01:15;99029.78;;;9.83;75.85
46223;BME280;31943;51.410;7.564;2022-12-29T00:03:41;99016.75;;;9.86;75.83
46223;BME280;31943;51.410;7.564;2022-12-29T00:06:08;99017.59;;;9.88;75.96
46223;BME280;31943;51.410;7.564;2022-12-29T00:08:35;99011.50;;;9.89;75.48
46223;BME280;31943;51.410;7.564;2022-12-29T00:11:00;99006.28;;;9.90;75.70
46223;BME280;31943;51.410;7.564;2022-12-29T00:13:25;99018.41;;;9.92;75.15
46223;BME280;31943;51.410;7.564;2022-12-29T00:15:54;99014.06;;;9.95;75.41
46223;BME280;31943;51.410;7.564;2022-12-29T00:18:19;99009.69;;;9.99;75.33
46223;BME280;31943;51.410;7.564;2022-12-29T00:20:45;99018.38;;;9.99;75.22
46223;BME280;31943;51.410;7.564;2022-12-29T00:23:10;99010.53;;;10.01;75.33
46223;BME280;31943;51.410;7.564;2022-12-29T00:25:39;99000.13;;;10.02;75.13
46223;BME280;31943;51.410;7.564;2022-12-29T00:28:07;98988.84;;;10.02;75.58
46223;BME280;31943;51.410;7.564;2022-12-29T00:30:35;98983.59;;;10.03;75.35
46223;BME280;31943;51.410;7.564;2022-12-29T00:33:08;98980.97;;;10.06;75.40
46223;BME280;31943;51.410;7.564;2022-12-29T00:35:38;98984.44;;;10.05;75.96
46223;BME280;31943;51.410;7.564;2022-12-29T00:38:06;98988.78;;;10.08;76.00
46223;BME280;31943;51.410;7.564;2022-12-29T00:40:32;98991.38;;;10.08;75.74
46223;BME280;31943;51.410;7.564;2022-12-29T00:42:58;98977.47;;;10.09;76.01
46223;BME280;31943;51.410;7.564;2022-12-29T00:45:23;98982.66;;;10.10;75.84
46223;BME280;31943;51.410;7.564;2022-12-29T00:47:50;98979.19;;;10.10;75.84
46223;BME280;31943;51.410;7.564;2022-12-29T00:50:17;98983.50;;;10.13;76.17
46223;BME280;31943;51.410;7.564;2022-12-29T00:52:42;98979.16;;;10.15;75.92
46223;BME280;31943;51.410;7.564;2022-12-29T00:55:08;98972.19;;;10.15;76.30
46223;BME280;31943;51.410;7.564;2022-12-29T00:57:34;98975.69;;;10.16;76.20
46223;BME280;31943;51.410;7.564;2022-12-29T01:00:01;98975.69;;;10.16;76.51
46223;BME280;31943;51.410;7.564;2022-12-29T01:02:28;98966.97;;;10.18;76.54
46223;BME280;31943;51.410;7.564;2022-12-29T01:04:54;98960.88;;;10.19;76.21
46223;BME280;31943;51.410;7.564;2022-12-29T01:07:22;98975.63;;;10.19;76.35
46223;BME280;31943;51.410;7.564;2022-12-29T01:09:48;98955.69;;;10.16;76.68
46223;BME280;31943;51.410;7.564;2022-12-29T01:12:13;98945.25;;;10.15;76.83
46223;BME280;31943;51.410;7.564;2022-12-29T01:14:39;98962.66;;;10.16;76.37
46223;BME280;31943;51.410;7.564;2022-12-29T01:17:05;98964.34;;;10.20;76.79
46223;BME280;31943;51.410;7.564;2022-12-29T01:19:31;98966.06;;;10.22;76.91
46223;BME280;31943;51.410;7.564;2022-12-29T01:21:56;98967.78;;;10.23;76.95
46223;BME280;31943;51.410;7.564;2022-12-29T01:24:23;98969.50;;;10.24;77.07
46223;BME280;31943;51.410;7.564;2022-12-29T01:26:49;98955.63;;;10.24;77.10
46223;BME280;31943;51.410;7.564;2022-12-29T01:29:15;98961.72;;;10.21;77.25
46223;BME280;31943;51.410;7.564;2022-12-29T01:31:40;98954.75;;;10.23;77.46
46223;BME280;31943;51.410;7.564;2022-12-29T01:34:06;98945.19;;;10.24;77.35
46223;BME280;31943;51.410;7.564;2022-12-29T01:36:32;98944.34;;;10.23;77.08
46223;BME280;31943;51.410;7.564;2022-12-29T01:38:57;98955.63;;;10.22;77.04
46223;BME280;31943;51.410;7.564;2022-12-29T01:41:25;98951.31;;;10.21;77.03
46223;BME280;31943;51.410;7.564;2022-12-29T01:43:52;98953.88;;;10.23;77.04
46223;BME280;31943;51.410;7.564;2022-12-29T01:46:25;98956.47;;;10.26;76.78
46223;BME280;31943;51.410;7.564;2022-12-29T01:48:53;98945.19;;;10.25;76.90
46223;BME280;31943;51.410;7.564;2022-12-29T01:51:21;98948.66;;;10.26;76.82
46223;BME280;31943;51.410;7.564;2022-12-29T01:53:47;98947.78;;;10.24;77.03
46223;BME280;31943;51.410;7.564;2022-12-29T01:56:15;98956.47;;;10.26;77.39
46223;BME280;31943;51.410;7.564;2022-12-29T01:58:47;98945.19;;;10.24;77.12
46223;BME280;31943;51.410;7.564;2022-12-29T02:01:14;98945.19;;;10.24;76.85
46223;BME280;31943;51.410;7.564;2022-12-29T02:03:41;98943.41;;;10.27;77.18
46223;BME280;31943;51.410;7.564;2022-12-29T02:06:10;98947.75;;;10.30;76.67
46223;BME280;31943;51.410;7.564;2022-12-29T02:08:38;98958.19;;;10.33;76.76
46223;BME280;31943;51.410;7.564;2022-12-29T02:11:05;98941.63;;;10.34;76.55
46223;BME280;31943;51.410;7.564;2022-12-29T02:13:31;98934.66;;;10.35;76.74
46223;BME280;31943;51.410;7.564;2022-12-29T02:16:06;98933.81;;;10.34;76.18
46223;BME280;31943;51.410;7.564;2022-12-29T02:18:43;98926.81;;;10.39;76.17
46223;BME280;31943;51.410;7.564;2022-12-29T02:21:52;98932.03;;;10.41;75.72
46223;BME280;31943;51.410;7.564;2022-12-29T02:24:42;98929.44;;;10.39;75.44
46223;BME280;31943;51.410;7.564;2022-12-29T02:27:29;98916.34;;;10.42;75.09
46223;BME280;31943;51.410;7.564;2022-12-29T02:30:13;98919.78;;;10.44;75.01
46223;BME280;31943;51.410;7.564;2022-12-29T02:32:49;98925.00;;;10.44;74.67
46223;BME280;31943;51.410;7.564;2022-12-29T02:35:25;98918.00;;;10.49;74.86
46223;BME280;31943;51.410;7.564;2022-12-29T02:37:59;98909.34;;;10.47;74.50
46223;BME280;31943;51.410;7.564;2022-12-29T02:40:30;98901.50;;;10.49;74.65
46223;BME280;31943;51.410;7.564;2022-12-29T02:43:03;98900.59;;;10.52;74.78
46223;BME280;31943;51.410;7.564;2022-12-29T02:45:35;98891.91;;;10.51;74.99
46223;BME280;31943;51.410;7.564;2022-12-29T02:48:09;98893.66;;;10.51;74.54
46223;BME280;31943;51.410;7.564;2022-12-29T02:50:42;98891.94;;;10.49;74.31
46223;BME280;31943;51.410;7.564;2022-12-29T02:53:11;98892.78;;;10.52;74.38
46223;BME280;31943;51.410;7.564;2022-12-29T02:55:38;98878.88;;;10.51;74.00
46223;BME280;31943;51.410;7.564;2022-12-29T02:58:14;98897.97;;;10.53;73.62
46223;BME280;31943;51.410;7.564;2022-12-29T03:00:48;98884.94;;;10.55;73.23
46223;BME280;31943;51.410;7.564;2022-12-29T03:03:27;98892.69;;;10.59;72.81
46223;BME280;31943;51.410;7.564;2022-12-29T03:06:05;98890.94;;;10.60;72.53
46223;BME280;31943;51.410;7.564;2022-12-29T03:08:40;98890.06;;;10.61;72.39
46223;BME280;31943;51.410;7.564;2022-12-29T03:11:11;98886.53;;;10.63;72.21
46223;BME280;31943;51.410;7.564;2022-12-29T03:13:44;98893.44;;;10.69;71.66
46223;BME280;31943;51.410;7.564;2022-12-29T03:16:20;98886.47;;;10.68;71.44
46223;BME280;31943;51.410;7.564;2022-12-29T03:18:55;98889.06;;;10.71;71.25
46223;BME280;31943;51.410;7.564;2022-12-29T03:21:27;98893.38;;;10.74;71.28
46223;BME280;31943;51.410;7.564;2022-12-29T03:23:56;98891.59;;;10.76;71.08
46223;BME280;31943;51.410;7.564;2022-12-29T03:26:22;98893.34;;;10.77;70.85
46223;BME280;31943;51.410;7.564;2022-12-29T03:28:51;98885.53;;;10.77;70.75
46223;BME280;31943;51.410;7.564;2022-12-29T03:31:19;98888.97;;;10.79;70.67
46223;BME280;31943;51.410;7.564;2022-12-29T03:33:47;98887.22;;;10.78;70.75
46223;BME280;31943;51.410;7.564;2022-12-29T03:36:18;98898.56;;;10.75;70.69
46223;BME280;31943;51.410;7.564;2022-12-29T03:38:49;98894.22;;;10.76;71.29
46223;BME280;31943;51.410;7.564;2022-12-29T03:41:20;98898.56;;;10.75;71.28
46223;BME280;31943;51.410;7.564;2022-12-29T03:43:47;98890.81;;;10.71;71.93
46223;BME280;31943;51.410;7.564;2022-12-29T03:46:13;98880.41;;;10.67;72.25
46223;BME280;31943;51.410;7.564;2022-12-29T03:48:38;98877.81;;;10.67;72.04
46223;BME280;31943;51.410;7.564;2022-12-29T03:51:04;98881.25;;;10.68;71.95
46223;BME280;31943;51.410;7.564;2022-12-29T03:53:31;98882.19;;;10.64;71.98
46223;BME280;31943;51.410;7.564;2022-12-29T03:55:57;98885.69;;;10.64;72.22
46223;BME280;31943;51.410;7.564;2022-12-29T03:58:22;98883.06;;;10.64;72.27
46223;BME280;31943;51.410;7.564;2022-12-29T04:00:48;98878.75;;;10.60;72.88
46223;BME280;31943;51.410;7.564;2022-12-29T04:03:13;98876.13;;;10.60;72.84
46223;BME280;31943;51.410;7.564;2022-12-29T04:05:39;98877.03;;;10.59;73.08
46223;BME280;31943;51.410;7.564;2022-12-29T04:08:05;98869.22;;;10.56;73.29
46223;BME280;31943;51.410;7.564;2022-12-29T04:10:32;98864.00;;;10.58;73.61
46223;BME280;31943;51.410;7.564;2022-12-29T04:12:59;98858.78;;;10.56;73.57
46223;BME280;31943;51.410;7.564;2022-12-29T04:15:24;98860.56;;;10.56;73.97
46223;BME280;31943;51.410;7.564;2022-12-29T04:17:50;98870.97;;;10.57;73.64
46223;BME280;31943;51.410;7.564;2022-12-29T04:20:16;98861.38;;;10.59;74.07
46223;BME280;31943;51.410;7.564;2022-12-29T04:22:42;98860.53;;;10.57;73.97
46223;BME280;31943;51.410;7.564;2022-12-29T04:25:08;98851.03;;;10.55;73.98
46223;BME280;31943;51.410;7.564;2022-12-29T04:27:35;98850.13;;;10.56;73.78
46223;BME280;31943;51.410;7.564;2022-12-29T04:30:00;98832.72;;;10.56;73.95
46223;BME280;31943;51.410;7.564;2022-12-29T04:32:26;98831.00;;;10.57;74.32
46223;BME280;31943;51.410;7.564;2022-12-29T04:34:52;98824.03;;;10.57;74.33
46223;BME280;31943;51.410;7.564;2022-12-29T04:37:17;98819.66;;;10.59;73.96
46223;BME280;31943;51.410;7.564;2022-12-29T04:39:43;98799.63;;;10.60;73.73
46223;BME280;31943;51.410;7.564;2022-12-29T04:42:08;98802.22;;;10.61;73.76
46223;BME280;31943;51.410;7.564;2022-12-29T04:44:35;98795.25;;;10.62;73.59
46223;BME280;31943;51.410;7.564;2022-12-29T04:47:01;98801.41;;;10.58;73.27
46223;BME280;31943;51.410;7.564;2022-12-29T04:49:27;98802.31;;;10.55;72.99
46223;BME280;31943;51.410;7.564;2022-12-29T04:51:52;98804.00;;;10.59;72.93
46223;BME280;31943;51.410;7.564;2022-12-29T04:54:18;98820.50;;;10.58;72.99
46223;BME280;31943;51.410;7.564;2022-12-29T04:56:43;98822.25;;;10.59;72.76
46223;BME280;31943;51.410;7.564;2022-12-29T04:59:09;98826.56;;;10.60;72.55
46223;BME280;31943;51.410;7.564;2022-12-29T05:01:37;98811.81;;;10.61;72.55
46223;BME280;31943;51.410;7.564;2022-12-29T05:04:02;98821.31;;;10.63;72.50
46223;BME280;31943;51.410;7.564;2022-12-29T05:06:28;98817.84;;;10.64;72.45
46223;BME280;31943;51.410;7.564;2022-12-29T05:08:53;98829.97;;;10.67;72.48
46223;BME280;31943;51.410;7.564;2022-12-29T05:11:19;98827.31;;;10.70;72.19
46223;BME280;31943;51.410;7.564;2022-12-29T05:13:45;98818.59;;;10.74;71.97
46223;BME280;31943;51.410;7.564;2022-12-29T05:16:10;98840.34;;;10.73;71.80
46223;BME280;31943;51.410;7.564;2022-12-29T05:18:37;98835.97;;;10.75;71.58
46223;BME280;31943;51.410;7.564;2022-12-29T05:21:03;98831.59;;;10.77;71.20
46223;BME280;31943;51.410;7.564;2022-12-29T05:23:29;98835.00;;;10.81;70.81
46223;BME280;31943;51.410;7.564;2022-12-29T05:25:54;98835.88;;;10.81;70.50
46223;BME280;31943;51.410;7.564;2022-12-29T05:28:20;98840.16;;;10.85;70.19
46223;BME280;31943;51.410;7.564;2022-12-29T05:30:48;98825.34;;;10.87;69.63
46223;BME280;31943;51.410;7.564;2022-12-29T05:33:14;98844.41;;;10.93;69.42
46223;BME280;31943;51.410;7.564;2022-12-29T05:35:41;98833.97;;;10.94;69.25
46223;BME280;31943;51.410;7.564;2022-12-29T05:38:06;98838.28;;;10.95;69.40
46223;BME280;31943;51.410;7.564;2022-12-29T05:40:32;98828.66;;;10.99;69.18
46223;BME280;31943;51.410;7.564;2022-12-29T05:42:57;98846.00;;;11.03;69.17
46223;BME280;31943;51.410;7.564;2022-12-29T05:45:23;98840.78;;;11.03;68.67
46223;BME280;31943;51.410;7.564;2022-12-29T05:47:48;98848.59;;;11.04;68.63
46223;BME280;31943;51.410;7.564;2022-12-29T05:50:14;98859.91;;;11.05;68.40
46223;BME280;31943;51.410;7.564;2022-12-29T05:52:41;98863.34;;;11.07;68.41
46223;BME280;31943;51.410;7.564;2022-12-29T05:55:07;98868.53;;;11.10;68.24
46223;BME280;31943;51.410;7.564;2022-12-29T05:57:33;98872.91;;;11.10;68.30
46223;BME280;31943;51.410;7.564;2022-12-29T05:59:58;98866.78;;;11.12;68.00
46223;BME280;31943;51.410;7.564;2022-12-29T06:02:24;98867.63;;;11.14;67.84
46223;BME280;31943;51.410;7.564;2022-12-29T06:04:49;98865.00;;;11.16;67.49
46223;BME280;31943;51.410;7.564;2022-12-29T06:07:15;98854.53;;;11.16;67.31
46223;BME280;31943;51.410;7.564;2022-12-29T06:09:42;98858.88;;;11.15;67.35
46223;BME280;31943;51.410;7.564;2022-12-29T06:12:08;98861.50;;;11.15;67.49
46223;BME280;31943;51.410;7.564;2022-12-29T06:14:33;98863.22;;;11.16;67.50
46223;BME280;31943;51.410;7.564;2022-12-29T06:16:59;98866.75;;;11.14;67.50
46223;BME280;31943;51.410;7.564;2022-12-29T06:19:24;98870.22;;;11.14;67.25
46223;BME280;31943;51.410;7.564;2022-12-29T06:21:50;98868.53;;;11.12;67.50
46223;BME280;31943;51.410;7.564;2022-12-29T06:24:16;98851.97;;;11.11;67.70
46223;BME280;31943;51.410;7.564;2022-12-29T06:26:43;98862.50;;;11.06;67.26
46223;BME280;31943;51.410;7.564;2022-12-29T06:29:09;98863.34;;;11.07;66.87
46223;BME280;31943;51.410;7.564;2022-12-29T06:31:35;98865.09;;;11.08;66.65
46223;BME280;31943;51.410;7.564;2022-12-29T06:34:00;98871.16;;;11.08;66.01
46223;BME280;31943;51.410;7.564;2022-12-29T06:36:26;98867.63;;;11.11;65.96
46223;BME280;31943;51.410;7.564;2022-12-29T06:38:52;98856.34;;;11.09;66.11
46223;BME280;31943;51.410;7.564;2022-12-29T06:41:17;98871.16;;;11.10;65.72
46223;BME280;31943;51.410;7.564;2022-12-29T06:43:44;98870.31;;;11.08;65.90
46223;BME280;31943;51.410;7.564;2022-12-29T06:46:10;98874.63;;;11.09;65.60
46223;BME280;31943;51.410;7.564;2022-12-29T06:48:36;98878.13;;;11.10;65.45
46223;BME280;31943;51.410;7.564;2022-12-29T06:51:01;98881.59;;;11.08;65.27
46223;BME280;31943;51.410;7.564;2022-12-29T06:53:27;98907.72;;;11.07;65.66
46223;BME280;31943;51.410;7.564;2022-12-29T06:55:53;98912.09;;;11.08;65.62
46223;BME280;31943;51.410;7.564;2022-12-29T06:58:18;98914.72;;;11.06;64.95
46223;BME280;31943;51.410;7.564;2022-12-29T07:00:46;98919.00;;;11.11;64.46
46223;BME280;31943;51.410;7.564;2022-12-29T07:03:11;98915.53;;;11.12;64.89
46223;BME280;31943;51.410;7.564;2022-12-29T07:05:37;98926.84;;;11.11;64.79
46223;BME280;31943;51.410;7.564;2022-12-29T07:08:03;98919.00;;;11.09;65.12
46223;BME280;31943;51.410;7.564;2022-12-29T07:10:28;98922.47;;;11.11;64.81
46223;BME280;31943;51.410;7.564;2022-12-29T07:12:54;98932.06;;;11.11;64.98
46223;BME280;31943;51.410;7.564;2022-12-29T07:15:19;98927.69;;;11.11;64.74
46223;BME280;31943;51.410;7.564;2022-12-29T07:17:47;98938.19;;;11.08;64.65
46223;BME280;31943;51.410;7.564;2022-12-29T07:20:12;98926.88;;;11.07;65.13
46223;BME280;31943;51.410;7.564;2022-12-29T07:22:38;98937.38;;;11.03;65.57
46223;BME280;31943;51.410;7.564;2022-12-29T07:25:04;98931.31;;;10.99;65.71
46223;BME280;31943;51.410;7.564;2022-12-29T07:27:30;98934.84;;;10.97;65.63
46223;BME280;31943;51.410;7.564;2022-12-29T07:29:55;98934.00;;;10.95;65.70
46223;BME280;31943;51.410;7.564;2022-12-29T07:32:21;98957.56;;;10.88;65.84
46223;BME280;31943;51.410;7.564;2022-12-29T07:34:48;98941.91;;;10.90;65.31
46223;BME280;31943;51.410;7.564;2022-12-29T07:37:14;98959.28;;;10.89;65.09
46223;BME280;31943;51.410;7.564;2022-12-29T07:39:40;98955.81;;;10.87;65.51
46223;BME280;31943;51.410;7.564;2022-12-29T07:42:05;98955.81;;;10.87;65.28
46223;BME280;31943;51.410;7.564;2022-12-29T07:44:31;98961.94;;;10.88;65.81
46223;BME280;31943;51.410;7.564;2022-12-29T07:46:56;98964.56;;;10.86;66.16
46223;BME280;31943;51.410;7.564;2022-12-29T07:49:22;98968.03;;;10.85;66.12
46223;BME280;31943;51.410;7.564;2022-12-29T07:51:49;98956.75;;;10.83;65.98
46223;BME280;31943;51.410;7.564;2022-12-29T07:54:14;98963.75;;;10.80;66.14
46223;BME280;31943;51.410;7.564;2022-12-29T07:56:40;98978.53;;;10.79;66.39
46223;BME280;31943;51.410;7.564;2022-12-29T07:59:05;98976.00;;;10.75;66.56
46223;BME280;31943;51.410;7.564;2022-12-29T08:01:31;98985.59;;;10.74;66.71
46223;BME280;31943;51.410;7.564;2022-12-29T08:03:56;98981.22;;;10.73;66.25
46223;BME280;31943;51.410;7.564;2022-12-29T08:06:22;98995.19;;;10.69;66.40
46223;BME280;31943;51.410;7.564;2022-12-29T08:08:49;98999.50;;;10.72;66.00
46223;BME280;31943;51.410;7.564;2022-12-29T08:11:14;99001.28;;;10.68;66.14
46223;BME280;31943;51.410;7.564;2022-12-29T08:13:40;99007.34;;;10.70;66.09
46223;BME280;31943;51.410;7.564;2022-12-29T08:16:06;99004.72;;;10.70;66.15
46223;BME280;31943;51.410;7.564;2022-12-29T08:18:31;99018.63;;;10.72;65.55
46223;BME280;31943;51.410;7.564;2022-12-29T08:21:01;99015.16;;;10.72;65.15
46223;BME280;31943;51.410;7.564;2022-12-29T08:23:27;99012.53;;;10.73;64.84
46223;BME280;31943;51.410;7.564;2022-12-29T08:25:58;99002.94;;;10.77;64.92
46223;BME280;31943;51.410;7.564;2022-12-29T08:28:23;99019.44;;;10.77;64.11
46223;BME280;31943;51.410;7.564;2022-12-29T08:30:50;99015.06;;;10.79;64.32
46223;BME280;31943;51.410;7.564;2022-12-29T08:33:16;99018.53;;;10.81;63.46
46223;BME280;31943;51.410;7.564;2022-12-29T08:35:41;99017.66;;;10.82;63.22
46223;BME280;31943;51.410;7.564;2022-12-29T08:38:08;99009.78;;;10.85;62.95
46223;BME280;31943;51.410;7.564;2022-12-29T08:40:33;99011.47;;;10.89;62.50
46223;BME280;31943;51.410;7.564;2022-12-29T08:43:00;99006.25;;;10.91;61.66
46223;BME280;31943;51.410;7.564;2022-12-29T08:45:26;99014.06;;;10.91;62.12
46223;BME280;31943;51.410;7.564;2022-12-29T08:47:51;99015.78;;;10.95;62.27
46223;BME280;31943;51.410;7.564;2022-12-29T08:50:17;99015.78;;;10.95;61.99
46223;BME280;31943;51.410;7.564;2022-12-29T08:52:42;99017.50;;;10.96;62.11
46223;BME280;31943;51.410;7.564;2022-12-29T08:55:08;99018.38;;;10.97;62.04
46223;BME280;31943;51.410;7.564;2022-12-29T08:57:34;99011.38;;;10.99;61.73
46223;BME280;31943;51.410;7.564;2022-12-29T09:00:02;99020.06;;;11.01;61.98
46223;BME280;31943;51.410;7.564;2022-12-29T09:02:27;99010.47;;;11.01;61.75
46223;BME280;31943;51.410;7.564;2022-12-29T09:04:53;99022.69;;;10.99;61.79
46223;BME280;31943;51.410;7.564;2022-12-29T09:07:18;99006.13;;;11.02;61.72
46223;BME280;31943;51.410;7.564;2022-12-29T09:09:44;99006.94;;;11.07;61.64
46223;BME280;31943;51.410;7.564;2022-12-29T09:12:09;99018.22;;;11.11;61.48
46223;BME280;31943;51.410;7.564;2022-12-29T09:14:35;99018.22;;;11.11;61.47
46223;BME280;31943;51.410;7.564;2022-12-29T09:17:02;99033.88;;;11.11;61.71
46223;BME280;31943;51.410;7.564;2022-12-29T09:19:28;99054.81;;;11.06;62.71
46223;BME280;31943;51.410;7.564;2022-12-29T09:21:53;99078.41;;;10.98;64.06
46223;BME280;31943;51.410;7.564;2022-12-29T09:24:19;99091.66;;;10.78;66.40
46223;BME280;31943;51.410;7.564;2022-12-29T09:26:44;99070.97;;;10.55;67.67
46223;BME280;31943;51.410;7.564;2022-12-29T09:29:10;99082.47;;;10.29;68.23
46223;BME280;31943;51.410;7.564;2022-12-29T09:31:36;99085.13;;;10.22;68.87
46223;BME280;31943;51.410;7.564;2022-12-29T09:34:02;99090.34;;;10.20;68.79
46223;BME280;31943;51.410;7.564;2022-12-29T09:36:28;99094.69;;;10.18;68.74
46223;BME280;31943;51.410;7.564;2022-12-29T09:38:54;99094.69;;;10.17;69.20
46223;BME280;31943;51.410;7.564;2022-12-29T09:41:23;99107.75;;;10.17;69.00
46223;BME280;31943;51.410;7.564;2022-12-29T09:44:06;99106.84;;;10.22;69.29
46223;BME280;31943;51.410;7.564;2022-12-29T09:46:40;99104.22;;;10.22;68.89
46223;BME280;31943;51.410;7.564;2022-12-29T09:49:18;99097.25;;;10.29;69.25
46223;BME280;31943;51.410;7.564;2022-12-29T09:51:46;99100.69;;;10.34;69.46
46223;BME280;31943;51.410;7.564;2022-12-29T09:54:36;99094.56;;;10.40;69.41
46223;BME280;31943;51.410;7.564;2022-12-29T09:57:05;99099.78;;;10.40;69.40
46223;BME280;31943;51.410;7.564;2022-12-29T09:59:39;99097.19;;;10.41;69.02
46223;BME280;31943;51.410;7.564;2022-12-29T10:02:16;99089.34;;;10.40;68.81
46223;BME280;31943;51.410;7.564;2022-12-29T10:04:48;99095.44;;;10.40;68.99
46223;BME280;31943;51.410;7.564;2022-12-29T10:07:20;99095.44;;;10.40;68.78
46223;BME280;31943;51.410;7.564;2022-12-29T10:09:55;99093.72;;;10.36;68.02
46223;BME280;31943;51.410;7.564;2022-12-29T10:12:31;99107.56;;;10.44;67.76
46223;BME280;31943;51.410;7.564;2022-12-29T10:15:04;99102.34;;;10.47;67.69
46223;BME280;31943;51.410;7.564;2022-12-29T10:17:40;99110.16;;;10.49;67.98
46223;BME280;31943;51.410;7.564;2022-12-29T10:20:32;99091.84;;;10.55;66.83
46223;BME280;31943;51.410;7.564;2022-12-29T10:23:14;99097.91;;;10.59;66.79
46223;BME280;31943;51.410;7.564;2022-12-29T10:25:44;99098.75;;;10.59;66.19
46223;BME280;31943;51.410;7.564;2022-12-29T10:28:17;99094.41;;;10.58;65.09
46223;BME280;31943;51.410;7.564;2022-12-29T10:30:46;99092.63;;;10.66;64.74
46223;BME280;31943;51.410;7.564;2022-12-29T10:33:15;99081.28;;;10.71;64.65
46223;BME280;31943;51.410;7.564;2022-12-29T10:35:44;99089.03;;;10.77;64.29
46223;BME280;31943;51.410;7.564;2022-12-29T10:38:17;99090.81;;;10.76;63.68
46223;BME280;31943;51.410;7.564;2022-12-29T10:40:50;99072.56;;;10.73;62.65
46223;BME280;31943;51.410;7.564;2022-12-29T10:43:22;99089.06;;;10.72;62.52
46223;BME280;31943;51.410;7.564;2022-12-29T10:45:49;99089.09;;;10.71;62.19
46223;BME280;31943;51.410;7.564;2022-12-29T10:48:20;99098.63;;;10.73;61.87
46223;BME280;31943;51.410;7.564;2022-12-29T10:50:49;99079.47;;;10.76;61.28
46223;BME280;31943;51.410;7.564;2022-12-29T10:53:19;99088.19;;;10.73;61.55
46223;BME280;31943;51.410;7.564;2022-12-29T10:55:46;99079.50;;;10.74;60.92
46223;BME280;31943;51.410;7.564;2022-12-29T10:58:14;99088.13;;;10.79;61.14
46223;BME280;31943;51.410;7.564;2022-12-29T11:00:41;99082.91;;;10.82;60.28
46223;BME280;31943;51.410;7.564;2022-12-29T11:03:35;99084.63;;;10.83;60.77
46223;BME280;31943;51.410;7.564;2022-12-29T11:06:09;99085.47;;;10.85;60.96
46223;BME280;31943;51.410;7.564;2022-12-29T11:08:41;99090.66;;;10.88;60.14
46223;BME280;31943;51.410;7.564;2022-12-29T11:11:10;99088.00;;;10.92;59.44
46223;BME280;31943;51.410;7.564;2022-12-29T11:13:48;99102.81;;;10.89;59.40
46223;BME280;31943;51.410;7.564;2022-12-29T11:16:14;99106.25;;;10.95;59.94
46223;BME280;31943;51.410;7.564;2022-12-29T11:18:41;99107.97;;;10.99;60.25
46223;BME280;31943;51.410;7.564;2022-12-29T11:21:27;99098.44;;;10.95;60.10
46223;BME280;31943;51.410;7.564;2022-12-29T11:23:56;99101.13;;;10.85;59.56
46223;BME280;31943;51.410;7.564;2022-12-29T11:26:22;99108.09;;;10.83;59.59
46223;BME280;31943;51.410;7.564;2022-12-29T11:29:23;99109.78;;;10.89;59.74
46223;BME280;31943;51.410;7.564;2022-12-29T11:31:50;99118.53;;;10.85;59.31
46223;BME280;31943;51.410;7.564;2022-12-29T11:34:17;99111.63;;;10.81;59.32
46223;BME280;31943;51.410;7.564;2022-12-29T11:36:46;99129.84;;;10.85;59.63
46223;BME280;31943;51.410;7.564;2022-12-29T11:39:26;99128.91;;;10.89;58.97
46223;BME280;31943;51.410;7.564;2022-12-29T11:41:53;99126.31;;;10.89;59.30
46223;BME280;31943;51.410;7.564;2022-12-29T11:44:19;99128.97;;;10.85;58.92
46223;BME280;31943;51.410;7.564;2022-12-29T11:46:47;99131.59;;;10.85;58.63
46223;BME280;31943;51.410;7.564;2022-12-29T11:49:19;99142.88;;;10.85;59.21
46223;BME280;31943;51.410;7.564;2022-12-29T11:51:49;99142.00;;;10.88;59.39
46223;BME280;31943;51.410;7.564;2022-12-29T11:54:18;99149.00;;;10.86;58.34
46223;BME280;31943;51.410;7.564;2022-12-29T11:56:45;99147.19;;;10.89;58.80
46223;BME280;31943;51.410;7.564;2022-12-29T11:59:24;99155.91;;;10.88;58.60
46223;BME280;31943;51.410;7.564;2022-12-29T12:02:03;99167.25;;;10.86;58.15
46223;BME280;31943;51.410;7.564;2022-12-29T12:04:36;99169.03;;;10.84;58.33
46223;BME280;31943;51.410;7.564;2022-12-29T12:07:11;99161.19;;;10.84;58.70
46223;BME280;31943;51.410;7.564;2022-12-29T12:09:45;99171.63;;;10.82;59.18
46223;BME280;31943;51.410;7.564;2022-12-29T12:12:20;99166.41;;;10.81;59.05
46223;BME280;31943;51.410;7.564;2022-12-29T12:14:53;99163.81;;;10.84;58.47
46223;BME280;31943;51.410;7.564;2022-12-29T12:17:23;99169.03;;;10.82;58.74
46223;BME280;31943;51.410;7.564;2022-12-29T12:19:56;99168.19;;;10.80;58.54
46223;BME280;31943;51.410;7.564;2022-12-29T12:22:29;99183.78;;;10.86;58.17
46223;BME280;31943;51.410;7.564;2022-12-29T12:25:01;99183.78;;;10.86;58.32
46223;BME280;31943;51.410;7.564;2022-12-29T12:27:32;99188.09;;;10.89;58.34
46223;BME280;31943;51.410;7.564;2022-12-29T12:30:03;99185.53;;;10.86;58.16
46223;BME280;31943;51.410;7.564;2022-12-29T12:32:37;99185.53;;;10.84;58.23
46223;BME280;31943;51.410;7.564;2022-12-29T12:35:11;99195.97;;;10.81;58.49
46223;BME280;31943;51.410;7.564;2022-12-29T12:37:57;99185.59;;;10.78;57.65
46223;BME280;31943;51.410;7.564;2022-12-29T12:40:49;99189.06;;;10.80;57.57
46223;BME280;31943;51.410;7.564;2022-12-29T12:43:38;99185.59;;;10.78;58.04
46223;BME280;31943;51.410;7.564;2022-12-29T12:46:15;99198.66;;;10.74;58.32
46223;BME280;31943;51.410;7.564;2022-12-29T12:48:56;99197.78;;;10.73;58.42
46223;BME280;31943;51.410;7.564;2022-12-29T12:51:32;99176.06;;;10.71;57.78
46223;BME280;31943;51.410;7.564;2022-12-29T12:54:09;99196.94;;;10.69;58.01
46223;BME280;31943;51.410;7.564;2022-12-29T12:56:50;99207.38;;;10.74;58.18
46223;BME280;31943;51.410;7.564;2022-12-29T12:59:32;99231.75;;;10.64;57.44
46223;BME280;31943;51.410;7.564;2022-12-29T13:02:03;99225.69;;;10.66;57.84
46223;BME280;31943;51.410;7.564;2022-12-29T13:04:53;99197.81;;;10.70;57.55
46223;BME280;31943;51.410;7.564;2022-12-29T13:07:31;99200.44;;;10.68;57.96
46223;BME280;31943;51.410;7.564;2022-12-29T13:13:10;99203.03;;;10.70;58.10